Impacts TAF Board INFO
FOR SITUATIONAL AWARENESS. NOT TO BE USED FOR FLIGHT PLANNING PURPOSES.
IDs:

KLGA - New York/La Guardia, NY, US

Issued at 1939 UTC 11 Dec 2017
Updated at 2051 UTC 11 Dec 2017
Potential Impact None Slight Moderate High
Time<<12/09Z 12/10Z 12/11Z 12/12Z 12/13Z 12/14Z 12/15Z 12/16Z 12/17Z 12/18Z 12/19Z 12/20Z 12/21Z>>
Type PRVL PRVL PRVL PRVL PRVL PRVL PRVL PRVL PRVL PRVL PRVL PRVL PRVL
VIS >6 >6 >6 6 6 6 6 6 6 >6 >6 >6 >6
CIG 100 100 100 20 20 20 20 20 20 25 25 25 50
Cover OVC OVC OVC BKN BKN BKN BKN BKN BKN OVC OVC OVC OVC
FltCat VFR VFR VFR MVFR MVFR MVFR MVFR MVFR MVFR MVFR MVFR MVFR VFR
WX -RA -RA -RA -RA -RA -RA -RA -RA -RA -- -- -- --
WDir 150 150 150 190 190 190 190 190 190 230 230 230 250
WSpd 6 6 6 12 12 12 12 12 12 15 15 15 15
WGst -- -- -- 18 18 18 18 18 18 -- -- -- 25

Raw TAF
KLGA 111939Z 1120/1224 29010KT P6SM FEW015 FEW070
  FM112200 25008KT P6SM SCT045 BKN250
  FM120600 16004KT P6SM OVC100
  FM120800 15006KT P6SM -RA SCT025 OVC100
  FM121200 19012G18KT 6SM -RA BKN020
  FM121800 23015KT P6SM OVC025
  FM122100 25015G25KT P6SM OVC050


METAR Board
Radar Display
Forecast Discussion

FOR SITUATIONAL AWARENESS. NOT TO BE USED FOR FLIGHT PLANNING PURPOSES.